Terminal Aerodrome Forecast
Issued by NWS

Home | Current Version | Previous Version | Text Only | Print | Product List | Glossary On
Versions: 1 2 3 4 5 6 7 8 9 10 11 12 13 14 15 16 17 18 19
000
FTUS46 KSEW 202300 RRA
TAFHQM
TAF
KHQM 202343Z 2100/2124 23010KT P6SM OVC030
     FM210300 25008KT P6SM BKN035
     FM211000 24003KT P6SM OVC015
      TEMPO 2112/2115 3SM BR OVC008
     FM212000 23010KT P6SM BKN035=

USA.gov is the U.S. government's official web portal to all federal, state and local government web resources and services.